Atkinson, NE

12:41 PM CST on December 26, 2014 (GMT -0600)
The O'Neill Municipal-Baker | Change Station
CLOSE
Current Station
Airport
Location: O'Neill,
Elevation: 2031 ft
Nearby Weather Stations
Active Advisory: Winter Weather Advisory Active Notice: Local Storm Report

Elev 2031 ft 42.47 °N, 98.69 °W | Updated 26 minutes ago

Snow
Snow
25 °F
Feels Like 11 °F
N
17
Wind Variable Wind from North

Today
High -- | Low -- °F
--% Chance of Precip.
Yesterday
High -- | Low -- °F
Precip. -- in
8:04 AM 5:08 PM
Waxing Crescent, 28% visible
Pressure 30.04 in
Visibility 10.0 miles
Clouds Overcast 800 ft
Windchill 11 °F
Dew Point 23 °F
Humidity 95%
Rainfall 0.00 in
Snow Depth Not available.
UV 1 out of 12
Pollen .10 out of 12
Air Quality Not available.
Flu Activity Not available.
METAR KONL 261815Z AUTO 35015KT 10SM OVC008 M04/M05 A3004 RMK AO2 T10411048

More Conditions Fewer Conditions

Pressure 30.04 in
Visibility 10.0 miles
Clouds Overcast 800 ft
Windchill 11 °F
Dew Point 23 °F
Humidity 95%
Rainfall 0.00 in
Snow Depth Not available.
UV 1 out of 12
Pollen .10 out of 12
Air Quality Not available.
Flu Activity Not available.
METAR KONL 261815Z AUTO 35015KT 10SM OVC008 M04/M05 A3004 RMK AO2 T10411048

More Conditions Fewer Conditions

Nowcast | as of 6:24 PM GMT on December 26, 2014

At 1221 PM CST a band of light to moderate snow was located along a line from near Swan Lake to Taylor to Arnold to North Platte. Light to moderate snow will combine with some blowing snow...and will create visibility down to one half mile in places. Localized visibility could be down as low as one quarter mile in open areas. Locations within the snow band can expect around one inch of snow accumulation during the next couple of hours.

×

10-Day Weather Forecast

Almanac

Astronomy

Dec. 26, 2014 Rise Set
Actual Time
Civil Twilight
Nautical Twilight
Astronomical Twilight
Moon
Length of Visible Light
Length of Day
Tomorrow will be .
, % of the Moon is Illuminated

Today's Extremes

State Highs State Lows

Community

WunderPhotos

Upload Photos

1,780,668 photos uploaded!

WunderBlogs® & News

Nearby

Air Quality

  Air Quality AQ Index Pollutant
Not available.

Snow Depth

Station Depth Elevation

Earthquake Activity

City Distance Mag. Time & Date
Minimum magnitude displayed is 2.5.

Coastal Water Temperatures

Place Temperature

Nearby Weather Stations